createdAt,value
2019-05-25T00:00:03.346Z,12.00
2019-05-25T00:01:03.330Z,12.00
2019-05-25T00:02:03.359Z,12.00
2019-05-25T00:03:03.309Z,12.00
2019-05-25T00:04:03.302Z,12.00
2019-05-25T00:05:03.296Z,12.00
2019-05-25T00:06:03.289Z,12.00
2019-05-25T00:07:03.293Z,12.00
2019-05-25T00:08:03.265Z,12.00
2019-05-25T00:09:03.246Z,12.00
2019-05-25T00:10:03.259Z,12.00
2019-05-25T00:11:03.244Z,12.00
2019-05-25T00:12:03.243Z,8.00
2019-05-25T00:13:03.220Z,8.00
2019-05-25T00:14:03.223Z,8.00
2019-05-25T00:15:03.201Z,8.00
2019-05-25T00:16:03.165Z,8.00
2019-05-25T00:18:03.151Z,8.00
2019-05-25T00:19:03.249Z,8.00
2019-05-25T00:20:03.121Z,8.00
2019-05-25T00:21:03.122Z,8.00
2019-05-25T00:22:03.113Z,8.00
2019-05-25T00:23:03.099Z,8.00
2019-05-25T00:24:11.652Z,12.00
2019-05-25T00:25:04.131Z,4.00
2019-05-25T00:26:03.068Z,8.00
2019-05-25T00:27:03.049Z,8.00
2019-05-25T00:28:03.048Z,8.00
2019-05-25T00:29:03.028Z,8.00
2019-05-25T00:30:03.034Z,12.00
2019-05-25T00:31:03.020Z,8.00
2019-05-25T00:32:03.001Z,8.00
2019-05-25T00:33:02.987Z,8.00
2019-05-25T00:34:03.034Z,12.00
2019-05-25T00:35:02.982Z,12.00
2019-05-25T00:36:02.994Z,8.00
2019-05-25T00:37:02.956Z,12.00
2019-05-25T00:38:02.970Z,12.00
2019-05-25T00:39:02.942Z,8.00
2019-05-25T00:40:02.948Z,12.00
2019-05-25T00:41:02.932Z,12.00
2019-05-25T00:42:02.941Z,12.00
2019-05-25T00:43:02.900Z,12.00
2019-05-25T00:44:02.909Z,16.00
2019-05-25T00:45:02.892Z,16.00
2019-05-25T00:46:02.871Z,16.00
2019-05-25T00:47:02.854Z,12.00
2019-05-25T00:48:12.855Z,16.00
2019-05-25T00:49:02.832Z,16.00
2019-05-25T00:50:02.811Z,12.00
2019-05-25T00:51:02.823Z,12.00
2019-05-25T00:52:02.780Z,12.00
2019-05-25T00:53:02.770Z,16.00
2019-05-25T00:54:02.770Z,20.00
2019-05-25T00:55:02.768Z,20.00
2019-05-25T00:56:02.807Z,20.00
2019-05-25T00:57:02.729Z,20.00
2019-05-25T00:58:02.731Z,20.00
2019-05-25T00:59:02.724Z,20.00
2019-05-25T01:00:02.698Z,24.00
2019-05-25T01:01:02.701Z,24.00
2019-05-25T01:02:02.736Z,24.00
2019-05-25T01:03:02.668Z,24.00
2019-05-25T01:04:02.653Z,28.00
2019-05-25T01:05:02.654Z,28.00
2019-05-25T01:06:02.672Z,28.00
2019-05-25T01:07:02.659Z,28.00
2019-05-25T01:08:02.643Z,28.00
2019-05-25T01:09:02.622Z,28.00
2019-05-25T01:10:02.637Z,32.00
2019-05-25T01:11:02.602Z,32.00
2019-05-25T01:12:02.612Z,32.00
2019-05-25T01:13:02.560Z,32.00
2019-05-25T01:14:03.135Z,32.00
2019-05-25T01:15:02.559Z,32.00
2019-05-25T01:16:02.548Z,32.00
2019-05-25T01:17:02.523Z,28.00
2019-05-25T01:18:02.545Z,36.00
2019-05-25T01:19:12.952Z,36.00
2019-05-25T01:20:02.484Z,36.00
2019-05-25T01:21:02.484Z,36.00
2019-05-25T01:22:02.465Z,40.00
2019-05-25T01:23:02.463Z,40.00
2019-05-25T01:24:02.472Z,40.00
2019-05-25T01:25:02.430Z,44.00
2019-05-25T01:26:02.430Z,44.00
2019-05-25T01:27:02.423Z,44.00
2019-05-25T01:28:02.432Z,44.00
2019-05-25T01:29:02.432Z,40.00
2019-05-25T01:30:02.395Z,44.00
2019-05-25T01:31:02.379Z,40.00
2019-05-25T01:32:02.374Z,40.00
2019-05-25T01:33:02.370Z,40.00
2019-05-25T01:34:02.348Z,44.00
2019-05-25T01:35:02.363Z,48.00
2019-05-25T01:36:02.331Z,48.00
2019-05-25T01:37:02.916Z,52.00
2019-05-25T01:38:02.310Z,52.00
2019-05-25T01:39:02.318Z,52.00
2019-05-25T01:40:02.276Z,56.00
2019-05-25T01:41:02.279Z,60.00
2019-05-25T01:42:02.269Z,60.00
2019-05-25T01:43:02.251Z,64.00
2019-05-25T01:44:02.288Z,64.00
2019-05-25T01:45:02.225Z,64.00
2019-05-25T01:46:02.225Z,68.00
2019-05-25T01:47:02.218Z,68.00
2019-05-25T01:48:02.199Z,72.00
2019-05-25T01:49:02.186Z,76.00
2019-05-25T01:50:14.641Z,76.00
2019-05-25T01:51:02.168Z,76.00
2019-05-25T01:52:02.154Z,76.00
2019-05-25T01:53:02.131Z,80.00
2019-05-25T01:54:02.134Z,80.00
2019-05-25T01:55:02.121Z,84.00
2019-05-25T01:56:02.121Z,80.00
2019-05-25T01:57:02.112Z,84.00
2019-05-25T01:58:02.094Z,88.00
2019-05-25T01:59:02.074Z,92.00
2019-05-25T02:00:02.599Z,100.00
2019-05-25T02:01:02.062Z,104.00
2019-05-25T02:02:02.044Z,112.00
2019-05-25T02:03:02.140Z,120.00
2019-05-25T02:04:02.022Z,120.00
2019-05-25T02:05:02.093Z,124.00
2019-05-25T02:06:02.023Z,128.00
2019-05-25T02:07:01.995Z,140.00
2019-05-25T02:08:01.998Z,148.00
2019-05-25T02:09:01.989Z,152.00
2019-05-25T02:10:01.971Z,160.00
2019-05-25T02:11:02.009Z,168.00
2019-05-25T02:12:01.987Z,172.00
2019-05-25T02:13:01.928Z,176.00
2019-05-25T02:14:01.916Z,188.00
2019-05-25T02:15:01.920Z,204.00
2019-05-25T02:16:01.917Z,216.00
2019-05-25T02:17:01.908Z,232.00
2019-05-25T02:18:01.877Z,244.00
2019-05-25T02:19:01.872Z,252.00
2019-05-25T02:20:01.885Z,256.00
2019-05-25T02:21:12.413Z,252.00
2019-05-25T02:22:01.846Z,244.00
2019-05-25T02:23:01.840Z,236.00
2019-05-25T02:24:01.813Z,232.00
2019-05-25T02:25:16.244Z,236.00
2019-05-25T02:26:02.795Z,244.00
2019-05-25T02:27:01.790Z,252.00
2019-05-25T02:28:01.787Z,264.00
2019-05-25T02:29:01.753Z,280.00
2019-05-25T02:30:01.783Z,304.00
2019-05-25T02:31:01.738Z,324.00
2019-05-25T02:32:01.753Z,344.00
2019-05-25T02:33:01.763Z,368.00
2019-05-25T02:34:01.724Z,388.00
2019-05-25T02:35:01.708Z,408.00
2019-05-25T02:36:01.701Z,408.00
2019-05-25T02:37:01.696Z,408.00
2019-05-25T02:38:01.677Z,396.00
2019-05-25T02:39:01.711Z,380.00
2019-05-25T02:40:01.656Z,364.00
2019-05-25T02:41:01.660Z,372.00
2019-05-25T02:42:01.619Z,392.00
2019-05-25T02:43:01.619Z,408.00
2019-05-25T02:44:01.611Z,420.00
2019-05-25T02:45:01.611Z,432.00
2019-05-25T02:46:01.576Z,444.00
2019-05-25T02:47:01.574Z,440.00
2019-05-25T02:48:01.562Z,436.00
2019-05-25T02:49:01.537Z,424.00
2019-05-25T02:50:01.583Z,420.00
2019-05-25T02:51:01.529Z,452.00
2019-05-25T02:52:12.080Z,560.00
2019-05-25T02:53:01.512Z,700.00
2019-05-25T02:54:01.484Z,772.00
2019-05-25T02:55:01.477Z,816.00
2019-05-25T02:56:01.503Z,876.00
2019-05-25T02:57:01.462Z,864.00
2019-05-25T02:58:01.445Z,792.00
2019-05-25T02:59:01.458Z,752.00
2019-05-25T03:00:01.423Z,776.00
2019-05-25T03:01:01.426Z,896.00
2019-05-25T03:02:01.452Z,1052.00
2019-05-25T03:03:01.425Z,1304.00
2019-05-25T03:04:01.395Z,1528.00
2019-05-25T03:05:01.389Z,1584.00
2019-05-25T03:06:01.439Z,1512.00
2019-05-25T03:07:01.361Z,1412.00
2019-05-25T03:08:01.350Z,1300.00
2019-05-25T03:09:01.344Z,1200.00
2019-05-25T03:10:01.389Z,1232.00
2019-05-25T03:11:01.324Z,1224.00
2019-05-25T03:12:01.322Z,1168.00
2019-05-25T03:13:01.314Z,1160.00
2019-05-25T03:14:01.290Z,1256.00
2019-05-25T03:15:01.385Z,1400.00
2019-05-25T03:16:01.316Z,1432.00
2019-05-25T03:17:01.359Z,1500.00
2019-05-25T03:18:01.271Z,1420.00
2019-05-25T03:19:01.249Z,1344.00
2019-05-25T03:20:01.224Z,1464.00
2019-05-25T03:21:01.220Z,1556.00
2019-05-25T03:22:01.220Z,1676.00
2019-05-25T03:23:11.646Z,1944.00
2019-05-25T03:24:01.175Z,2184.00
2019-05-25T03:25:01.154Z,2092.00
2019-05-25T03:26:01.146Z,1900.00
2019-05-25T03:27:01.155Z,1772.00
2019-05-25T03:28:01.151Z,1772.00
2019-05-25T03:29:01.177Z,1944.00
2019-05-25T03:30:01.156Z,2124.00
2019-05-25T03:31:01.105Z,2176.00
2019-05-25T03:32:01.109Z,2236.00
2019-05-25T03:33:01.114Z,2348.00
2019-05-25T03:34:01.088Z,2340.00
2019-05-25T03:35:01.070Z,2344.00
2019-05-25T03:36:01.056Z,2272.00
2019-05-25T03:37:01.040Z,2036.00
2019-05-25T03:38:01.029Z,1976.00
2019-05-25T03:39:01.036Z,2088.00
2019-05-25T03:40:01.007Z,2092.00
2019-05-25T03:41:01.004Z,1920.00
2019-05-25T03:42:01.002Z,1488.00
2019-05-25T03:43:00.992Z,1400.00
2019-05-25T03:44:01.011Z,1576.00
2019-05-25T03:45:00.948Z,1860.00
2019-05-25T03:46:00.965Z,2156.00
2019-05-25T03:47:00.964Z,2424.00
2019-05-25T03:48:00.957Z,2392.00
2019-05-25T03:49:00.932Z,2032.00
2019-05-25T03:50:00.901Z,2020.00
2019-05-25T03:51:00.881Z,1660.00
2019-05-25T03:52:00.932Z,1500.00
2019-05-25T03:53:00.874Z,1340.00
2019-05-25T03:54:10.991Z,1272.00
2019-05-25T03:55:00.891Z,1308.00
2019-05-25T03:56:05.928Z,1272.00
2019-05-25T03:57:01.821Z,1268.00
2019-05-25T03:58:00.817Z,1232.00
2019-05-25T03:59:00.822Z,1128.00
2019-05-25T04:00:00.803Z,1048.00
2019-05-25T04:01:00.789Z,924.00
2019-05-25T04:02:00.770Z,920.00
2019-05-25T04:03:00.771Z,976.00
2019-05-25T04:04:00.748Z,980.00
2019-05-25T04:05:00.746Z,920.00
2019-05-25T04:06:00.746Z,888.00
2019-05-25T04:07:00.735Z,860.00
2019-05-25T04:08:00.718Z,776.00
2019-05-25T04:09:00.719Z,776.00
2019-05-25T04:10:00.700Z,824.00
2019-05-25T04:11:00.675Z,908.00
2019-05-25T04:12:00.675Z,916.00
2019-05-25T04:13:00.667Z,872.00
2019-05-25T04:14:00.659Z,864.00
2019-05-25T04:15:00.638Z,868.00
2019-05-25T04:16:00.682Z,924.00
2019-05-25T04:17:00.614Z,944.00
2019-05-25T04:18:00.615Z,984.00
2019-05-25T04:19:00.594Z,1096.00
2019-05-25T04:20:00.575Z,1168.00
2019-05-25T04:21:00.591Z,1180.00
2019-05-25T04:22:00.592Z,1184.00
2019-05-25T04:23:00.563Z,1180.00
2019-05-25T04:24:00.541Z,1168.00
2019-05-25T04:25:10.641Z,1132.00
2019-05-25T04:26:00.513Z,1060.00
2019-05-25T04:27:00.512Z,1000.00
2019-05-25T04:28:00.511Z,952.00
2019-05-25T04:29:00.481Z,908.00
2019-05-25T04:30:00.474Z,832.00
2019-05-25T04:31:00.470Z,716.00
2019-05-25T04:32:00.451Z,724.00
2019-05-25T04:33:00.481Z,688.00
2019-05-25T04:34:00.462Z,644.00
2019-05-25T04:35:00.525Z,664.00
2019-05-25T04:36:00.426Z,780.00
2019-05-25T04:37:00.480Z,1068.00
2019-05-25T04:38:00.444Z,1440.00
2019-05-25T04:39:00.391Z,1676.00
2019-05-25T04:40:00.369Z,1768.00
2019-05-25T04:41:00.389Z,1820.00
2019-05-25T04:42:00.352Z,1776.00
2019-05-25T04:43:00.361Z,1748.00
2019-05-25T04:44:00.380Z,1748.00
2019-05-25T04:45:00.341Z,1752.00
2019-05-25T04:46:00.304Z,1708.00
2019-05-25T04:47:00.320Z,1684.00
2019-05-25T04:48:00.310Z,1792.00
2019-05-25T04:49:00.271Z,1768.00
2019-05-25T04:50:00.265Z,1408.00
2019-05-25T04:51:00.292Z,1368.00
2019-05-25T04:52:00.247Z,1528.00
2019-05-25T04:53:00.261Z,1560.00
2019-05-25T04:54:00.250Z,1600.00
2019-05-25T04:55:00.237Z,1568.00
2019-05-25T04:56:10.097Z,1592.00
2019-05-25T04:57:00.184Z,1640.00
2019-05-25T04:58:00.184Z,1632.00
2019-05-25T04:59:00.175Z,1736.00
2019-05-25T05:00:00.165Z,1876.00
2019-05-25T05:01:00.190Z,2048.00
2019-05-25T05:02:00.156Z,2332.00
2019-05-25T05:03:00.176Z,2648.00
2019-05-25T05:04:00.120Z,2832.00
2019-05-25T05:05:00.112Z,2980.00
2019-05-25T05:06:00.106Z,2984.00
2019-05-25T05:07:00.134Z,2868.00
2019-05-25T05:08:00.084Z,2676.00
2019-05-25T05:09:00.098Z,2316.00
2019-05-25T05:10:03.044Z,1920.00
2019-05-25T05:11:00.065Z,1588.00
2019-05-25T05:12:00.063Z,1412.00
2019-05-25T05:13:00.025Z,1316.00
2019-05-25T05:14:00.043Z,1276.00
2019-05-25T05:15:00.013Z,1264.00
2019-05-25T05:16:00.043Z,1272.00
2019-05-25T05:16:59.983Z,1292.00
2019-05-25T05:17:59.970Z,1248.00
2019-05-25T05:18:59.963Z,1384.00
2019-05-25T05:19:59.949Z,1596.00
2019-05-25T05:21:00.440Z,1580.00
2019-05-25T05:21:59.951Z,1336.00
2019-05-25T05:22:59.929Z,1080.00
2019-05-25T05:23:59.907Z,988.00
2019-05-25T05:24:59.918Z,1000.00
2019-05-25T05:25:59.922Z,1080.00
2019-05-25T05:27:10.455Z,1220.00
2019-05-25T05:27:59.868Z,1376.00
2019-05-25T05:28:59.853Z,1572.00
2019-05-25T05:29:59.835Z,1624.00
2019-05-25T05:30:59.850Z,1668.00
2019-05-25T05:31:59.867Z,1768.00
2019-05-25T05:32:59.816Z,1912.00
2019-05-25T05:33:59.794Z,2052.00
2019-05-25T05:34:59.800Z,2132.00
2019-05-25T05:35:59.802Z,2176.00
2019-05-25T05:36:59.801Z,2196.00
2019-05-25T05:37:59.763Z,2164.00
2019-05-25T05:38:59.765Z,2144.00
2019-05-25T05:39:59.735Z,2204.00
2019-05-25T05:40:59.733Z,2352.00
2019-05-25T05:41:59.714Z,2632.00
2019-05-25T05:42:59.713Z,3132.00
2019-05-25T05:43:59.696Z,3436.00
2019-05-25T05:44:59.686Z,3596.00
2019-05-25T05:45:59.692Z,3796.00
2019-05-25T05:46:59.795Z,3600.00
2019-05-25T05:47:59.673Z,3148.00
2019-05-25T05:48:59.645Z,3256.00
2019-05-25T05:49:59.625Z,3180.00
2019-05-25T05:50:59.642Z,2984.00
2019-05-25T05:51:59.611Z,2824.00
2019-05-25T05:52:59.622Z,2696.00
2019-05-25T05:53:59.604Z,2740.00
2019-05-25T05:54:59.593Z,2804.00
2019-05-25T05:55:59.574Z,2972.00
2019-05-25T05:57:11.706Z,2968.00
2019-05-25T05:58:09.582Z,2920.00
2019-05-25T05:58:59.585Z,2976.00
2019-05-25T05:59:59.525Z,2948.00
2019-05-25T06:00:59.506Z,2868.00
2019-05-25T06:01:59.506Z,2860.00
2019-05-25T06:02:59.496Z,2892.00
2019-05-25T06:03:59.498Z,2912.00
2019-05-25T06:04:59.483Z,2960.00
2019-05-25T06:05:59.467Z,2944.00
2019-05-25T06:06:59.444Z,2688.00
2019-05-25T06:07:59.430Z,2408.00
2019-05-25T06:08:59.434Z,2228.00
2019-05-25T06:09:59.435Z,2172.00
2019-05-25T06:10:59.415Z,2184.00
2019-05-25T06:11:59.414Z,2224.00
2019-05-25T06:12:59.373Z,2360.00
2019-05-25T06:13:59.388Z,2560.00
2019-05-25T06:14:59.413Z,2568.00
2019-05-25T06:15:59.351Z,2616.00
2019-05-25T06:16:59.360Z,2588.00
2019-05-25T06:17:59.337Z,2616.00
2019-05-25T06:18:59.329Z,2700.00
2019-05-25T06:19:59.341Z,2828.00
2019-05-25T06:20:59.313Z,2980.00
2019-05-25T06:21:59.281Z,3008.00
2019-05-25T06:22:59.314Z,2904.00
2019-05-25T06:23:59.273Z,2728.00
2019-05-25T06:24:59.260Z,2568.00
2019-05-25T06:25:59.272Z,2444.00
2019-05-25T06:26:59.283Z,2356.00
2019-05-25T06:27:59.233Z,2304.00
2019-05-25T06:29:09.449Z,2292.00
2019-05-25T06:29:59.209Z,2288.00
2019-05-25T06:30:59.217Z,2328.00
2019-05-25T06:31:59.191Z,2348.00
2019-05-25T06:32:59.187Z,2332.00
2019-05-25T06:33:59.151Z,2224.00
2019-05-25T06:34:59.147Z,2128.00
2019-05-25T06:35:59.139Z,2124.00
2019-05-25T06:36:59.152Z,2140.00
2019-05-25T06:37:59.130Z,2120.00
2019-05-25T06:38:59.107Z,2052.00
2019-05-25T06:39:59.121Z,1988.00
2019-05-25T06:40:59.080Z,1928.00
2019-05-25T06:41:59.097Z,1940.00
2019-05-25T06:42:59.048Z,2036.00
2019-05-25T06:43:59.049Z,2144.00
2019-05-25T06:44:59.029Z,2256.00
2019-05-25T06:45:59.028Z,2296.00
2019-05-25T06:46:59.028Z,2352.00
2019-05-25T06:47:59.041Z,2436.00
2019-05-25T06:48:58.991Z,2608.00
2019-05-25T06:49:59.001Z,2712.00
2019-05-25T06:50:58.972Z,2748.00
2019-05-25T06:51:58.957Z,2760.00
2019-05-25T06:52:58.986Z,2952.00
2019-05-25T06:53:59.007Z,2840.00
2019-05-25T06:54:58.926Z,2464.00
2019-05-25T06:55:58.927Z,2204.00
2019-05-25T06:56:58.928Z,1984.00
2019-05-25T06:57:58.896Z,1804.00
2019-05-25T06:58:58.896Z,1672.00
2019-05-25T07:00:58.863Z,1364.00
2019-05-25T07:01:58.854Z,1292.00
2019-05-25T07:02:58.842Z,1300.00
2019-05-25T07:03:58.822Z,1360.00
2019-05-25T07:04:58.811Z,1452.00
2019-05-25T07:05:58.835Z,1552.00
2019-05-25T07:06:58.794Z,1688.00
2019-05-25T07:07:58.781Z,1912.00
2019-05-25T07:08:58.772Z,2188.00
2019-05-25T07:09:58.780Z,2472.00
2019-05-25T07:10:58.750Z,2672.00
2019-05-25T07:11:58.752Z,2888.00
2019-05-25T07:12:58.742Z,3056.00
2019-05-25T07:13:58.735Z,3128.00
2019-05-25T07:14:58.725Z,3124.00
2019-05-25T07:15:58.786Z,3040.00
2019-05-25T07:16:58.690Z,2980.00
2019-05-25T07:17:58.683Z,2900.00
2019-05-25T07:18:58.672Z,2868.00
2019-05-25T07:19:58.650Z,2752.00
2019-05-25T07:20:58.651Z,2512.00
2019-05-25T07:21:58.643Z,2256.00
2019-05-25T07:22:58.638Z,2044.00
2019-05-25T07:23:58.610Z,1892.00
2019-05-25T07:24:58.604Z,1796.00
2019-05-25T07:25:58.642Z,1824.00
2019-05-25T07:26:58.595Z,1924.00
2019-05-25T07:28:00.259Z,1908.00
2019-05-25T07:28:58.579Z,1880.00
2019-05-25T07:29:58.548Z,1928.00
2019-05-25T07:31:09.197Z,2040.00
2019-05-25T07:32:58.539Z,2120.00
2019-05-25T07:33:58.496Z,2204.00
2019-05-25T07:34:58.487Z,2312.00
2019-05-25T07:35:58.482Z,2440.00
2019-05-25T07:36:58.479Z,2532.00
2019-05-25T07:37:58.487Z,2604.00
2019-05-25T07:38:58.499Z,2692.00
2019-05-25T07:39:58.449Z,2792.00
2019-05-25T07:40:58.437Z,2932.00
2019-05-25T07:41:58.433Z,2988.00
2019-05-25T07:42:58.419Z,3008.00
2019-05-25T07:43:58.435Z,3116.00
2019-05-25T07:44:58.406Z,3240.00
2019-05-25T07:45:58.370Z,3304.00
2019-05-25T07:46:58.364Z,3348.00
2019-05-25T07:47:58.346Z,3368.00
2019-05-25T07:48:58.355Z,3444.00
2019-05-25T07:49:58.349Z,3472.00
2019-05-25T07:50:58.314Z,3456.00
2019-05-25T07:51:58.317Z,3388.00
2019-05-25T07:52:58.322Z,3284.00
2019-05-25T07:53:58.287Z,3264.00
2019-05-25T07:54:58.306Z,3212.00
2019-05-25T07:55:58.265Z,3184.00
2019-05-25T07:56:58.266Z,3160.00
2019-05-25T07:58:13.618Z,3148.00
2019-05-25T07:58:59.226Z,3152.00
2019-05-25T07:59:58.228Z,3164.00
2019-05-25T08:00:58.291Z,3144.00
2019-05-25T08:02:10.394Z,3152.00
2019-05-25T08:03:58.195Z,3120.00
2019-05-25T08:04:58.167Z,3080.00
2019-05-25T08:05:58.154Z,3056.00
2019-05-25T08:06:58.165Z,2996.00
2019-05-25T08:07:58.158Z,2948.00
2019-05-25T08:08:58.122Z,2928.00
2019-05-25T08:09:58.119Z,2920.00
2019-05-25T08:10:58.113Z,2916.00
2019-05-25T08:11:58.095Z,2928.00
2019-05-25T08:12:58.093Z,2988.00
2019-05-25T08:13:58.102Z,3064.00
2019-05-25T08:14:58.084Z,3164.00
2019-05-25T08:15:58.111Z,3256.00
2019-05-25T08:16:58.065Z,3348.00
2019-05-25T08:17:58.041Z,3444.00
2019-05-25T08:18:58.028Z,3516.00
2019-05-25T08:19:58.004Z,3608.00
2019-05-25T08:20:58.004Z,3668.00
2019-05-25T08:21:57.991Z,3608.00
2019-05-25T08:22:57.997Z,3464.00
2019-05-25T08:23:57.975Z,3344.00
2019-05-25T08:24:57.967Z,3268.00
2019-05-25T08:25:57.972Z,3228.00
2019-05-25T08:26:57.930Z,3220.00
2019-05-25T08:27:57.954Z,3204.00
2019-05-25T08:28:57.912Z,3208.00
2019-05-25T08:29:57.940Z,3248.00
2019-05-25T08:31:01.124Z,3312.00
2019-05-25T08:31:57.901Z,3360.00
2019-05-25T08:33:57.882Z,3528.00
2019-05-25T08:34:57.856Z,3568.00
2019-05-25T08:35:57.843Z,3620.00
2019-05-25T08:36:57.821Z,3700.00
2019-05-25T08:37:57.841Z,3744.00
2019-05-25T08:38:57.806Z,3956.00
2019-05-25T08:39:57.804Z,4140.00
2019-05-25T08:40:57.796Z,4376.00
2019-05-25T08:41:57.764Z,4384.00
2019-05-25T08:42:57.782Z,4332.00
2019-05-25T08:43:57.753Z,4256.00
2019-05-25T08:44:57.740Z,4408.00
2019-05-25T08:45:57.732Z,4384.00
2019-05-25T08:46:57.724Z,4108.00
2019-05-25T08:47:57.740Z,4216.00
2019-05-25T08:48:57.701Z,4108.00
2019-05-25T08:49:57.692Z,3916.00
2019-05-25T08:50:59.670Z,3808.00
2019-05-25T08:51:57.689Z,3644.00
2019-05-25T08:52:57.681Z,3428.00
2019-05-25T08:53:57.670Z,3340.00
2019-05-25T08:54:57.644Z,3396.00
2019-05-25T08:55:57.644Z,3568.00
2019-05-25T08:56:57.611Z,3792.00
2019-05-25T08:57:57.613Z,4648.00
2019-05-25T08:58:57.644Z,5396.00
2019-05-25T08:59:57.580Z,5992.00
2019-05-25T09:00:57.582Z,6080.00
2019-05-25T09:01:57.592Z,5488.00
2019-05-25T09:02:57.563Z,4416.00
2019-05-25T09:04:57.532Z,4716.00
2019-05-25T09:05:57.521Z,4108.00
2019-05-25T09:06:57.514Z,3956.00
2019-05-25T09:07:57.499Z,4108.00
2019-05-25T09:08:57.504Z,3972.00
2019-05-25T09:09:57.533Z,3828.00
2019-05-25T09:10:57.477Z,3748.00
2019-05-25T09:11:57.465Z,3656.00
2019-05-25T09:12:57.454Z,3692.00
2019-05-25T09:13:57.444Z,3752.00
2019-05-25T09:14:57.421Z,3852.00
2019-05-25T09:15:57.433Z,3960.00
2019-05-25T09:16:57.425Z,4036.00
2019-05-25T09:17:57.417Z,3984.00
2019-05-25T09:18:57.391Z,3972.00
2019-05-25T09:19:57.384Z,3828.00
2019-05-25T09:20:57.375Z,3700.00
2019-05-25T09:22:02.482Z,3560.00
2019-05-25T09:22:58.342Z,3480.00
2019-05-25T09:23:57.322Z,3504.00
2019-05-25T09:24:57.332Z,3520.00
2019-05-25T09:25:57.374Z,3524.00
2019-05-25T09:26:57.313Z,3476.00
2019-05-25T09:27:57.302Z,3352.00
2019-05-25T09:29:04.407Z,3236.00
2019-05-25T09:29:58.261Z,3180.00
2019-05-25T09:30:57.250Z,3144.00
2019-05-25T09:31:57.282Z,3072.00
2019-05-25T09:32:57.265Z,3004.00
2019-05-25T09:33:57.222Z,2944.00
2019-05-25T09:35:57.202Z,2804.00
2019-05-25T09:36:57.181Z,2716.00
2019-05-25T09:37:57.182Z,2608.00
2019-05-25T09:38:57.171Z,2432.00
2019-05-25T09:39:57.160Z,2196.00
2019-05-25T09:40:57.152Z,1988.00
2019-05-25T09:41:57.152Z,1876.00
2019-05-25T09:42:57.146Z,1808.00
2019-05-25T09:43:57.111Z,1760.00
2019-05-25T09:44:57.102Z,1732.00
2019-05-25T09:45:57.101Z,1732.00
2019-05-25T09:46:57.094Z,1724.00
2019-05-25T09:47:57.151Z,1668.00
2019-05-25T09:48:57.051Z,1544.00
2019-05-25T09:49:57.062Z,1356.00
2019-05-25T09:50:57.040Z,1192.00
2019-05-25T09:51:57.063Z,1124.00
2019-05-25T09:52:57.067Z,1076.00
2019-05-25T09:53:57.001Z,1044.00
2019-05-25T09:54:56.998Z,1096.00
2019-05-25T09:55:57.003Z,1228.00
2019-05-25T09:56:56.985Z,1384.00
2019-05-25T09:57:56.958Z,1556.00
2019-05-25T09:58:56.971Z,1692.00
2019-05-25T09:59:56.940Z,1752.00
2019-05-25T10:00:56.930Z,1712.00
2019-05-25T10:01:56.962Z,1584.00
2019-05-25T10:02:56.960Z,1460.00
2019-05-25T10:03:56.941Z,1388.00
2019-05-25T10:04:56.887Z,1360.00
2019-05-25T10:06:56.873Z,1492.00
2019-05-25T10:07:56.851Z,1544.00
2019-05-25T10:08:56.882Z,1564.00
2019-05-25T10:09:56.840Z,1592.00
2019-05-25T10:10:56.830Z,1668.00
2019-05-25T10:11:56.825Z,1804.00
2019-05-25T10:12:56.809Z,1952.00
2019-05-25T10:13:56.799Z,2104.00
2019-05-25T10:14:56.812Z,2264.00
2019-05-25T10:15:56.794Z,2428.00
2019-05-25T10:16:56.761Z,2548.00
2019-05-25T10:17:56.762Z,2632.00
2019-05-25T10:18:56.791Z,2652.00
2019-05-25T10:19:56.737Z,2580.00
2019-05-25T10:20:56.710Z,2384.00
2019-05-25T10:21:59.400Z,2076.00
2019-05-25T10:22:56.701Z,1788.00
2019-05-25T10:23:56.679Z,1592.00
2019-05-25T10:24:56.708Z,1404.00
2019-05-25T10:25:56.675Z,1228.00
2019-05-25T10:26:56.660Z,1044.00
2019-05-25T10:27:56.636Z,904.00
2019-05-25T10:28:56.627Z,832.00
2019-05-25T10:29:56.691Z,832.00
2019-05-25T10:30:56.649Z,888.00
2019-05-25T10:31:56.597Z,976.00
2019-05-25T10:32:56.591Z,1104.00
2019-05-25T10:33:56.586Z,1300.00
2019-05-25T10:34:56.561Z,1500.00
2019-05-25T10:35:56.674Z,1692.00
2019-05-25T10:37:56.530Z,1652.00
2019-05-25T10:38:56.530Z,1460.00
2019-05-25T10:39:56.521Z,1280.00
2019-05-25T10:40:58.511Z,1136.00
2019-05-25T10:41:56.520Z,1012.00
2019-05-25T10:42:56.501Z,936.00
2019-05-25T10:43:56.469Z,912.00
2019-05-25T10:44:56.470Z,940.00
2019-05-25T10:45:56.462Z,936.00
2019-05-25T10:46:56.492Z,896.00
2019-05-25T10:47:56.442Z,864.00
2019-05-25T10:48:56.421Z,840.00
2019-05-25T10:49:56.427Z,820.00
2019-05-25T10:50:56.400Z,836.00
2019-05-25T10:51:56.408Z,856.00
2019-05-25T10:52:56.420Z,832.00
2019-05-25T10:53:56.398Z,808.00
2019-05-25T10:54:56.375Z,792.00
2019-05-25T10:55:56.359Z,760.00
2019-05-25T10:56:56.326Z,684.00
2019-05-25T10:57:56.329Z,540.00
2019-05-25T10:58:56.405Z,408.00
2019-05-25T10:59:56.308Z,328.00
2019-05-25T11:00:56.323Z,296.00
2019-05-25T11:01:56.300Z,288.00
2019-05-25T11:02:56.263Z,280.00
2019-05-25T11:03:56.256Z,276.00
2019-05-25T11:04:56.286Z,272.00
2019-05-25T11:05:56.246Z,264.00
2019-05-25T11:06:56.213Z,264.00
2019-05-25T11:08:06.826Z,276.00
2019-05-25T11:08:56.218Z,308.00
2019-05-25T11:09:56.206Z,344.00
2019-05-25T11:10:56.215Z,388.00
2019-05-25T11:11:56.175Z,424.00
2019-05-25T11:12:56.151Z,464.00
2019-05-25T11:13:56.164Z,500.00
2019-05-25T11:14:56.149Z,532.00
2019-05-25T11:15:56.123Z,564.00
2019-05-25T11:16:56.711Z,604.00
2019-05-25T11:17:56.108Z,736.00
2019-05-25T11:18:56.118Z,936.00
2019-05-25T11:19:56.107Z,1172.00
2019-05-25T11:20:56.103Z,1364.00
2019-05-25T11:21:56.091Z,1488.00
2019-05-25T11:22:56.060Z,1548.00
2019-05-25T11:23:56.045Z,1568.00
2019-05-25T11:24:56.073Z,1588.00
2019-05-25T11:25:56.012Z,1612.00
2019-05-25T11:26:59.568Z,1688.00
2019-05-25T11:27:56.003Z,1820.00
2019-05-25T11:28:56.003Z,1956.00
2019-05-25T11:30:08.619Z,2056.00
2019-05-25T11:30:56.984Z,2120.00
2019-05-25T11:31:59.767Z,2200.00
2019-05-25T11:32:56.931Z,2404.00
2019-05-25T11:33:55.936Z,2640.00
2019-05-25T11:34:55.931Z,2712.00
2019-05-25T11:35:55.963Z,2676.00
2019-05-25T11:36:56.000Z,2700.00
2019-05-25T11:37:55.890Z,2868.00
2019-05-25T11:39:55.889Z,3408.00
2019-05-25T11:40:55.848Z,3176.00
2019-05-25T11:41:55.864Z,2824.00
2019-05-25T11:42:55.840Z,2584.00
2019-05-25T11:43:55.831Z,2484.00
2019-05-25T11:44:55.818Z,2348.00
2019-05-25T11:45:55.824Z,2200.00
2019-05-25T11:46:55.829Z,2092.00
2019-05-25T11:47:55.780Z,1996.00
2019-05-25T11:48:55.780Z,1856.00
2019-05-25T11:49:55.759Z,1736.00
2019-05-25T11:50:55.774Z,1640.00
2019-05-25T11:51:55.740Z,1484.00
2019-05-25T11:52:55.777Z,1292.00
2019-05-25T11:53:55.729Z,1136.00
2019-05-25T11:54:55.716Z,1028.00
2019-05-25T11:55:55.699Z,952.00
2019-05-25T11:56:55.720Z,896.00
2019-05-25T11:57:55.716Z,860.00
2019-05-25T11:58:55.668Z,832.00
2019-05-25T11:59:55.705Z,800.00
2019-05-25T12:00:55.669Z,768.00
2019-05-25T12:01:55.645Z,748.00
2019-05-25T12:02:55.618Z,744.00
2019-05-25T12:03:55.649Z,768.00
2019-05-25T12:04:55.599Z,792.00
2019-05-25T12:05:55.602Z,792.00
2019-05-25T12:06:55.579Z,808.00
2019-05-25T12:07:55.588Z,832.00
2019-05-25T12:08:55.578Z,856.00
2019-05-25T12:10:55.551Z,904.00
2019-05-25T12:11:55.532Z,912.00
2019-05-25T12:12:55.517Z,916.00
2019-05-25T12:13:55.498Z,928.00
2019-05-25T12:14:55.492Z,936.00
2019-05-25T12:15:55.543Z,944.00
2019-05-25T12:16:55.471Z,948.00
2019-05-25T12:17:55.479Z,940.00
2019-05-25T12:18:55.482Z,920.00
2019-05-25T12:19:55.436Z,860.00
2019-05-25T12:20:55.427Z,812.00
2019-05-25T12:21:55.448Z,752.00
2019-05-25T12:22:55.432Z,676.00
2019-05-25T12:23:55.398Z,616.00
2019-05-25T12:24:55.398Z,600.00
2019-05-25T12:25:55.409Z,584.00
2019-05-25T12:26:55.369Z,568.00
2019-05-25T12:27:55.357Z,556.00
2019-05-25T12:28:55.370Z,516.00